createdAt,value
2023-01-29T05:00:34.029Z,0.00
2023-01-29T05:01:35.069Z,0.00
2023-01-29T05:02:35.023Z,0.00
2023-01-29T05:03:35.040Z,0.00
2023-01-29T05:04:34.949Z,0.00
2023-01-29T05:05:34.967Z,0.00
2023-01-29T05:06:34.940Z,0.00
2023-01-29T05:07:34.955Z,0.00
2023-01-29T05:08:34.964Z,0.00
2023-01-29T05:09:34.920Z,0.00
2023-01-29T05:10:34.894Z,0.00
2023-01-29T05:11:34.885Z,0.00
2023-01-29T05:12:34.900Z,0.00
2023-01-29T05:13:34.865Z,0.00
2023-01-29T05:14:34.864Z,0.00
2023-01-29T05:15:34.877Z,0.00
2023-01-29T05:16:34.822Z,0.00
2023-01-29T05:17:34.838Z,0.00
2023-01-29T05:18:35.588Z,0.00
2023-01-29T05:19:34.827Z,0.00
2023-01-29T05:20:34.811Z,0.00
2023-01-29T05:21:34.779Z,0.00
2023-01-29T05:22:34.786Z,0.00
2023-01-29T05:23:34.830Z,0.00
2023-01-29T05:24:34.756Z,0.00
2023-01-29T05:25:34.742Z,0.00
2023-01-29T05:26:34.737Z,0.00
2023-01-29T05:27:34.755Z,0.00
2023-01-29T05:28:34.721Z,0.00
2023-01-29T05:29:34.726Z,0.00
2023-01-29T05:30:34.733Z,0.00
2023-01-29T05:31:34.768Z,0.00
2023-01-29T05:32:34.707Z,0.00
2023-01-29T05:33:34.695Z,0.00
2023-01-29T05:34:34.699Z,0.00
2023-01-29T05:35:34.652Z,0.00
2023-01-29T05:36:34.626Z,0.00
2023-01-29T05:37:34.647Z,0.00
2023-01-29T05:38:34.625Z,0.00
2023-01-29T05:39:34.627Z,0.00
2023-01-29T05:40:34.585Z,0.00
2023-01-29T05:41:34.578Z,0.00
2023-01-29T05:42:34.615Z,0.00
2023-01-29T05:43:34.577Z,0.00
2023-01-29T05:44:34.545Z,0.00
2023-01-29T05:45:34.592Z,0.00
2023-01-29T05:46:34.628Z,0.00
2023-01-29T05:47:34.537Z,0.00
2023-01-29T05:48:34.517Z,0.00
2023-01-29T05:49:34.495Z,0.00
2023-01-29T05:50:34.488Z,0.00
2023-01-29T05:51:34.485Z,0.00
2023-01-29T05:52:34.476Z,0.00
2023-01-29T05:53:34.481Z,0.00
2023-01-29T05:54:34.470Z,0.00
2023-01-29T05:55:34.470Z,0.00
2023-01-29T05:56:34.419Z,0.00
2023-01-29T05:57:34.416Z,0.00
2023-01-29T05:58:34.426Z,0.00
2023-01-29T05:59:34.434Z,0.00
2023-01-29T06:00:34.411Z,0.00
2023-01-29T06:01:34.414Z,0.00
2023-01-29T06:02:34.430Z,0.00
2023-01-29T06:03:34.372Z,0.00
2023-01-29T06:04:34.336Z,0.00
2023-01-29T06:05:34.337Z,0.00
2023-01-29T06:06:34.333Z,0.00
2023-01-29T06:07:34.329Z,0.00
2023-01-29T06:08:34.310Z,0.00
2023-01-29T06:09:34.318Z,0.00
2023-01-29T06:10:34.269Z,0.00
2023-01-29T06:11:34.289Z,0.00
2023-01-29T06:12:34.264Z,0.00
2023-01-29T06:13:34.262Z,0.00
2023-01-29T06:14:34.248Z,0.00
2023-01-29T06:15:34.229Z,0.00
2023-01-29T06:16:34.284Z,0.00
2023-01-29T06:17:34.210Z,0.00
2023-01-29T06:18:34.212Z,0.00
2023-01-29T06:19:34.205Z,0.00
2023-01-29T06:20:34.184Z,0.00
2023-01-29T06:21:34.173Z,0.00
2023-01-29T06:22:34.177Z,0.00
2023-01-29T06:23:34.166Z,0.00
2023-01-29T06:24:34.145Z,0.00
2023-01-29T06:25:34.172Z,0.00
2023-01-29T06:26:34.059Z,1.00
2023-01-29T06:27:34.139Z,0.00
2023-01-29T06:28:34.106Z,0.00
2023-01-29T06:29:34.078Z,0.00
2023-01-29T06:30:34.168Z,1.00
2023-01-29T06:31:38.866Z,0.00
2023-01-29T06:32:34.110Z,0.00
2023-01-29T06:33:34.086Z,0.00
2023-01-29T06:34:34.047Z,0.00
2023-01-29T06:35:34.026Z,0.00
2023-01-29T06:36:33.980Z,2.00
2023-01-29T06:37:33.955Z,1.00
2023-01-29T06:38:33.993Z,0.00
2023-01-29T06:39:34.033Z,0.00
2023-01-29T06:40:33.974Z,0.00
2023-01-29T06:41:33.954Z,0.00
2023-01-29T06:42:33.920Z,2.00
2023-01-29T06:43:33.904Z,1.00
2023-01-29T06:44:33.896Z,1.00
2023-01-29T06:45:33.897Z,1.00
2023-01-29T06:46:33.875Z,9.00
2023-01-29T06:47:33.860Z,5.00
2023-01-29T06:48:33.824Z,2.00
2023-01-29T06:49:33.856Z,2.00
2023-01-29T06:50:33.829Z,2.00
2023-01-29T06:51:33.822Z,6.00
2023-01-29T06:52:33.836Z,4.00
2023-01-29T06:53:33.818Z,5.00
2023-01-29T06:54:33.807Z,8.00
2023-01-29T06:55:33.759Z,8.00
2023-01-29T06:56:33.785Z,8.00
2023-01-29T06:57:33.743Z,9.00
2023-01-29T06:58:33.749Z,13.00
2023-01-29T06:59:33.764Z,10.00
2023-01-29T07:00:33.812Z,11.00
2023-01-29T07:01:36.393Z,11.00
2023-01-29T07:02:33.721Z,12.00
2023-01-29T07:03:33.703Z,11.00
2023-01-29T07:04:33.695Z,15.00
2023-01-29T07:05:33.655Z,18.00
2023-01-29T07:06:33.668Z,18.00
2023-01-29T07:07:33.641Z,17.00
2023-01-29T07:08:33.630Z,15.00
2023-01-29T07:09:33.672Z,15.00
2023-01-29T07:10:33.632Z,20.00
2023-01-29T07:11:33.631Z,24.00
2023-01-29T07:12:33.607Z,28.00
2023-01-29T07:13:33.609Z,33.00
2023-01-29T07:14:33.573Z,38.00
2023-01-29T07:15:34.280Z,30.00
2023-01-29T07:16:33.564Z,26.00
2023-01-29T07:17:33.542Z,35.00
2023-01-29T07:18:33.531Z,36.00
2023-01-29T07:19:33.531Z,31.00
2023-01-29T07:20:33.551Z,28.00
2023-01-29T07:21:33.511Z,33.00
2023-01-29T07:22:33.498Z,29.00
2023-01-29T07:23:33.486Z,29.00
2023-01-29T07:24:33.511Z,32.00
2023-01-29T07:25:33.460Z,32.00
2023-01-29T07:26:33.456Z,35.00
2023-01-29T07:27:33.441Z,33.00
2023-01-29T07:28:33.436Z,31.00
2023-01-29T07:29:33.402Z,43.00
2023-01-29T07:30:33.428Z,54.00
2023-01-29T07:31:33.498Z,51.00
2023-01-29T07:32:33.389Z,51.00
2023-01-29T07:33:33.374Z,62.00
2023-01-29T07:34:33.384Z,52.00
2023-01-29T07:35:33.358Z,56.00
2023-01-29T07:36:33.352Z,76.00
2023-01-29T07:37:33.338Z,69.00
2023-01-29T07:38:33.339Z,66.00
2023-01-29T07:39:33.329Z,53.00
2023-01-29T07:40:33.339Z,52.00
2023-01-29T07:41:33.286Z,62.00
2023-01-29T07:42:33.293Z,72.00
2023-01-29T07:43:33.269Z,67.00
2023-01-29T07:44:33.265Z,54.00
2023-01-29T07:45:33.290Z,49.00
2023-01-29T07:46:33.246Z,51.00
2023-01-29T07:47:33.224Z,64.00
2023-01-29T07:48:33.235Z,68.00
2023-01-29T07:49:33.203Z,51.00
2023-01-29T07:50:33.239Z,63.00
2023-01-29T07:51:33.202Z,43.00
2023-01-29T07:52:33.187Z,62.00
2023-01-29T07:53:33.188Z,52.00
2023-01-29T07:54:33.197Z,67.00
2023-01-29T07:55:33.157Z,97.00
2023-01-29T07:56:33.137Z,109.00
2023-01-29T07:57:33.132Z,108.00
2023-01-29T07:58:35.584Z,82.00
2023-01-29T07:59:33.108Z,93.00
2023-01-29T08:00:33.087Z,87.00
2023-01-29T08:01:33.097Z,72.00
2023-01-29T08:02:33.112Z,78.00
2023-01-29T08:03:33.150Z,89.00
2023-01-29T08:04:33.059Z,97.00
2023-01-29T08:05:33.079Z,109.00
2023-01-29T08:06:33.052Z,102.00
2023-01-29T08:07:33.022Z,114.00
2023-01-29T08:08:33.016Z,97.00
2023-01-29T08:09:32.999Z,87.00
2023-01-29T08:10:32.995Z,83.00
2023-01-29T08:11:33.004Z,76.00
2023-01-29T08:12:32.993Z,103.00
2023-01-29T08:13:33.008Z,89.00
2023-01-29T08:14:32.946Z,100.00
2023-01-29T08:15:32.940Z,113.00
2023-01-29T08:16:32.942Z,98.00
2023-01-29T08:17:32.918Z,134.00
2023-01-29T08:18:32.900Z,119.00
2023-01-29T08:19:32.899Z,123.00
2023-01-29T08:20:32.887Z,119.00
2023-01-29T08:21:32.903Z,114.00
2023-01-29T08:22:32.873Z,94.00
2023-01-29T08:23:32.849Z,112.00
2023-01-29T08:24:47.417Z,114.00
2023-01-29T08:25:32.870Z,99.00
2023-01-29T08:26:32.853Z,102.00
2023-01-29T08:27:32.835Z,99.00
2023-01-29T08:28:32.799Z,135.00
2023-01-29T08:29:32.790Z,132.00
2023-01-29T08:30:32.807Z,144.00
2023-01-29T08:31:32.792Z,148.00
2023-01-29T08:32:33.030Z,145.00
2023-01-29T08:33:39.019Z,150.00
2023-01-29T08:34:32.771Z,167.00
2023-01-29T08:35:32.740Z,176.00
2023-01-29T08:36:32.726Z,160.00
2023-01-29T08:37:32.708Z,176.00
2023-01-29T08:38:32.703Z,152.00
2023-01-29T08:39:34.426Z,141.00
2023-01-29T08:40:32.696Z,158.00
2023-01-29T08:41:32.706Z,144.00
2023-01-29T08:42:32.666Z,123.00
2023-01-29T08:43:32.663Z,137.00
2023-01-29T08:44:32.632Z,148.00
2023-01-29T08:45:32.627Z,153.00
2023-01-29T08:46:32.649Z,169.00
2023-01-29T08:47:32.641Z,165.00
2023-01-29T08:48:32.609Z,152.00
2023-01-29T08:49:32.588Z,170.00
2023-01-29T08:50:32.577Z,159.00
2023-01-29T08:51:32.571Z,174.00
2023-01-29T08:52:32.571Z,163.00
2023-01-29T08:53:32.552Z,139.00
2023-01-29T08:54:32.527Z,148.00
2023-01-29T08:55:32.527Z,163.00
2023-01-29T08:56:32.506Z,169.00
2023-01-29T08:57:32.541Z,139.00
2023-01-29T08:58:32.529Z,146.00
2023-01-29T08:59:32.549Z,138.00
2023-01-29T09:00:32.460Z,161.00
2023-01-29T09:01:32.543Z,132.00
2023-01-29T09:02:32.594Z,141.00
2023-01-29T09:03:32.477Z,138.00
2023-01-29T09:04:32.478Z,140.00
2023-01-29T09:05:32.437Z,137.00
2023-01-29T09:06:32.419Z,127.00
2023-01-29T09:07:32.404Z,132.00
2023-01-29T09:08:32.383Z,157.00
2023-01-29T09:09:32.379Z,165.00
2023-01-29T09:10:32.386Z,156.00
2023-01-29T09:11:32.386Z,162.00
2023-01-29T09:12:32.408Z,182.00
2023-01-29T09:13:32.340Z,185.00
2023-01-29T09:14:32.329Z,141.00
2023-01-29T09:15:32.349Z,178.00
2023-01-29T09:16:32.377Z,172.00
2023-01-29T09:17:32.331Z,160.00
2023-01-29T09:18:32.349Z,213.00
2023-01-29T09:19:32.307Z,224.00
2023-01-29T09:20:32.278Z,181.00
2023-01-29T09:21:32.250Z,201.00
2023-01-29T09:22:32.260Z,237.00
2023-01-29T09:23:32.304Z,223.00
2023-01-29T09:24:32.234Z,192.00
2023-01-29T09:25:32.243Z,200.00
2023-01-29T09:26:32.270Z,172.00
2023-01-29T09:27:32.188Z,222.00
2023-01-29T09:28:32.196Z,228.00
2023-01-29T09:29:34.134Z,203.00
2023-01-29T09:30:32.212Z,196.00
2023-01-29T09:31:32.314Z,202.00
2023-01-29T09:33:32.169Z,275.00
2023-01-29T09:34:32.133Z,262.00
2023-01-29T09:35:32.114Z,196.00
2023-01-29T09:36:32.103Z,264.00
2023-01-29T09:37:32.086Z,256.00
2023-01-29T09:38:32.099Z,231.00
2023-01-29T09:39:32.078Z,265.00
2023-01-29T09:40:32.073Z,210.00
2023-01-29T09:41:32.042Z,217.00
2023-01-29T09:42:32.037Z,263.00
2023-01-29T09:43:32.024Z,274.00
2023-01-29T09:44:32.015Z,245.00
2023-01-29T09:45:32.008Z,299.00
2023-01-29T09:46:32.008Z,262.00
2023-01-29T09:47:31.983Z,261.00
2023-01-29T09:48:31.992Z,322.00
2023-01-29T09:49:31.991Z,362.00
2023-01-29T09:50:31.978Z,350.00
2023-01-29T09:51:31.945Z,347.00
2023-01-29T09:52:31.970Z,330.00
2023-01-29T09:53:31.968Z,318.00
2023-01-29T09:54:31.923Z,248.00
2023-01-29T09:55:31.887Z,301.00
2023-01-29T09:56:31.906Z,396.00
2023-01-29T09:57:31.885Z,464.00
2023-01-29T09:58:31.908Z,418.00
2023-01-29T09:59:31.867Z,346.00
2023-01-29T10:00:31.864Z,268.00
2023-01-29T10:01:31.957Z,338.00
2023-01-29T10:02:31.833Z,374.00
2023-01-29T10:03:31.824Z,453.00
2023-01-29T10:04:31.865Z,398.00
2023-01-29T10:05:31.810Z,525.00
2023-01-29T10:06:31.783Z,563.00
2023-01-29T10:07:31.774Z,540.00
2023-01-29T10:08:31.774Z,585.00
2023-01-29T10:09:31.757Z,633.00
2023-01-29T10:10:31.735Z,631.00
2023-01-29T10:11:31.732Z,508.00
2023-01-29T10:12:31.720Z,734.00
2023-01-29T10:13:31.707Z,777.00
2023-01-29T10:14:31.743Z,1115.00
2023-01-29T10:15:31.679Z,857.00
2023-01-29T10:16:31.751Z,632.00
2023-01-29T10:17:31.681Z,610.00
2023-01-29T10:18:31.661Z,575.00
2023-01-29T10:19:31.652Z,694.00
2023-01-29T10:20:31.675Z,458.00
2023-01-29T10:21:31.659Z,2159.00
2023-01-29T10:22:31.638Z,742.00
2023-01-29T10:23:33.487Z,659.00
2023-01-29T10:24:31.634Z,3022.00
2023-01-29T10:25:31.589Z,699.00
2023-01-29T10:26:31.618Z,814.00
2023-01-29T10:27:31.603Z,4483.00
2023-01-29T10:28:31.548Z,881.00
2023-01-29T10:29:31.551Z,4090.00
2023-01-29T10:30:31.550Z,1448.00
2023-01-29T10:31:31.690Z,544.00
2023-01-29T10:32:31.517Z,2069.00
2023-01-29T10:33:48.812Z,1969.00
2023-01-29T10:34:31.527Z,798.00
2023-01-29T10:35:31.495Z,4543.00
2023-01-29T10:36:31.547Z,1810.00
2023-01-29T10:37:31.525Z,1223.00
2023-01-29T10:38:31.463Z,1618.00
2023-01-29T10:39:31.478Z,1374.00
2023-01-29T10:40:31.444Z,629.00
2023-01-29T10:41:31.419Z,2358.00
2023-01-29T10:42:31.454Z,874.00
2023-01-29T10:43:31.401Z,4087.00
2023-01-29T10:44:31.423Z,3937.00
2023-01-29T10:45:31.375Z,1565.00
2023-01-29T10:46:31.359Z,1089.00
2023-01-29T10:47:31.391Z,1661.00
2023-01-29T10:48:31.348Z,1002.00
2023-01-29T10:49:31.344Z,2557.00
2023-01-29T10:50:31.341Z,1724.00
2023-01-29T10:51:31.326Z,1525.00
2023-01-29T10:52:31.291Z,1369.00
2023-01-29T10:53:31.297Z,1661.00
2023-01-29T10:54:31.328Z,1332.00
2023-01-29T10:55:31.263Z,1713.00
2023-01-29T10:56:31.273Z,1707.00
2023-01-29T10:57:31.258Z,1178.00
2023-01-29T10:58:31.236Z,1098.00
2023-01-29T10:59:31.228Z,1262.00
2023-01-29T11:00:31.239Z,1371.00
2023-01-29T11:01:31.232Z,1394.00
2023-01-29T11:02:31.233Z,1077.00
2023-01-29T11:03:31.266Z,742.00
2023-01-29T11:04:31.187Z,808.00
2023-01-29T11:05:31.167Z,953.00
2023-01-29T11:06:31.173Z,1066.00
2023-01-29T11:07:31.143Z,1036.00
2023-01-29T11:08:31.126Z,997.00
2023-01-29T11:10:31.141Z,763.00
2023-01-29T11:11:31.116Z,839.00
2023-01-29T11:12:31.131Z,865.00
2023-01-29T11:13:31.092Z,670.00
2023-01-29T11:14:31.064Z,773.00
2023-01-29T11:15:31.069Z,703.00
2023-01-29T11:16:31.062Z,761.00
2023-01-29T11:17:31.046Z,704.00
2023-01-29T11:18:31.043Z,726.00
2023-01-29T11:19:31.016Z,718.00
2023-01-29T11:20:31.014Z,700.00
2023-01-29T11:21:31.012Z,704.00
2023-01-29T11:22:30.975Z,752.00
2023-01-29T11:23:30.991Z,684.00
2023-01-29T11:24:30.974Z,619.00
2023-01-29T11:25:30.975Z,659.00
2023-01-29T11:26:31.002Z,746.00
2023-01-29T11:27:30.943Z,647.00
2023-01-29T11:28:30.917Z,710.00
2023-01-29T11:29:30.910Z,664.00
2023-01-29T11:30:30.934Z,736.00
2023-01-29T11:31:31.013Z,693.00
2023-01-29T11:32:30.900Z,670.00
2023-01-29T11:33:30.876Z,682.00
2023-01-29T11:34:30.854Z,667.00
2023-01-29T11:35:30.852Z,640.00
2023-01-29T11:36:30.850Z,608.00
2023-01-29T11:37:30.863Z,588.00
2023-01-29T11:38:30.840Z,572.00
2023-01-29T11:39:30.827Z,533.00
2023-01-29T11:40:30.796Z,549.00
2023-01-29T11:41:30.779Z,564.00
2023-01-29T11:42:30.777Z,522.00
2023-01-29T11:43:30.773Z,539.00
2023-01-29T11:44:30.754Z,580.00
2023-01-29T11:45:30.767Z,549.00
2023-01-29T11:46:30.772Z,523.00
2023-01-29T11:47:30.784Z,500.00
2023-01-29T11:48:30.700Z,486.00
2023-01-29T11:49:30.751Z,474.00
2023-01-29T11:50:30.682Z,470.00
2023-01-29T11:51:30.695Z,507.00
2023-01-29T11:52:30.706Z,483.00
2023-01-29T11:53:30.686Z,477.00
2023-01-29T11:54:30.660Z,491.00
2023-01-29T11:55:40.984Z,494.00
2023-01-29T11:56:30.668Z,488.00
2023-01-29T11:57:30.847Z,486.00
2023-01-29T11:58:30.600Z,501.00
2023-01-29T11:59:30.600Z,520.00
2023-01-29T12:00:30.573Z,596.00
2023-01-29T12:01:30.576Z,568.00
2023-01-29T12:02:30.565Z,570.00
2023-01-29T12:03:30.637Z,548.00
2023-01-29T12:04:30.539Z,533.00
2023-01-29T12:05:30.653Z,547.00
2023-01-29T12:06:30.520Z,564.00
2023-01-29T12:07:30.524Z,585.00
2023-01-29T12:08:30.515Z,638.00
2023-01-29T12:09:30.498Z,593.00
2023-01-29T12:10:30.486Z,596.00
2023-01-29T12:11:30.490Z,675.00
2023-01-29T12:12:30.464Z,666.00
2023-01-29T12:13:30.478Z,629.00
2023-01-29T12:14:30.449Z,700.00
2023-01-29T12:15:30.417Z,690.00
2023-01-29T12:16:30.505Z,600.00
2023-01-29T12:17:30.426Z,672.00
2023-01-29T12:18:30.442Z,686.00
2023-01-29T12:19:30.422Z,622.00
2023-01-29T12:20:30.374Z,646.00
2023-01-29T12:21:30.353Z,625.00
2023-01-29T12:22:30.360Z,600.00
2023-01-29T12:23:30.365Z,583.00
2023-01-29T12:24:30.345Z,583.00
2023-01-29T12:25:30.315Z,585.00
2023-01-29T12:26:30.318Z,623.00
2023-01-29T12:27:30.293Z,587.00
2023-01-29T12:28:30.298Z,562.00
2023-01-29T12:29:30.277Z,533.00
2023-01-29T12:30:30.297Z,467.00
2023-01-29T12:31:30.319Z,466.00
2023-01-29T12:32:30.255Z,644.00
2023-01-29T12:33:30.229Z,672.00
2023-01-29T12:34:30.269Z,619.00
2023-01-29T12:35:30.217Z,579.00
2023-01-29T12:36:30.225Z,548.00
2023-01-29T12:37:30.185Z,530.00
2023-01-29T12:38:30.198Z,486.00
2023-01-29T12:39:30.208Z,449.00
2023-01-29T12:40:30.175Z,427.00
2023-01-29T12:41:30.154Z,450.00
2023-01-29T12:42:30.142Z,435.00
2023-01-29T12:43:30.131Z,419.00
2023-01-29T12:44:30.159Z,422.00
2023-01-29T12:45:30.113Z,470.00
2023-01-29T12:46:30.168Z,474.00
2023-01-29T12:47:30.097Z,463.00
2023-01-29T12:48:30.095Z,455.00
2023-01-29T12:49:30.077Z,472.00
2023-01-29T12:50:30.079Z,436.00
2023-01-29T12:51:30.061Z,389.00
2023-01-29T12:52:30.017Z,369.00
2023-01-29T12:53:30.082Z,381.00
2023-01-29T12:54:30.025Z,337.00
2023-01-29T12:55:30.003Z,317.00
2023-01-29T12:56:30.053Z,334.00
2023-01-29T12:57:30.000Z,299.00
2023-01-29T12:58:30.001Z,286.00
2023-01-29T12:59:29.991Z,290.00
2023-01-29T13:00:29.942Z,288.00
2023-01-29T13:01:29.951Z,286.00
2023-01-29T13:02:29.916Z,281.00
2023-01-29T13:03:30.655Z,287.00
2023-01-29T13:04:29.918Z,282.00
2023-01-29T13:05:29.899Z,286.00
2023-01-29T13:06:29.898Z,303.00
2023-01-29T13:07:29.889Z,315.00
2023-01-29T13:08:29.848Z,311.00
2023-01-29T13:09:29.864Z,310.00
2023-01-29T13:10:29.847Z,302.00
2023-01-29T13:11:29.828Z,277.00
2023-01-29T13:12:29.837Z,307.00
2023-01-29T13:13:29.817Z,314.00
2023-01-29T13:14:29.815Z,320.00
2023-01-29T13:15:29.832Z,341.00
2023-01-29T13:16:29.855Z,331.00
2023-01-29T13:17:29.766Z,335.00
2023-01-29T13:18:29.749Z,348.00
2023-01-29T13:19:29.779Z,345.00
2023-01-29T13:20:30.306Z,334.00
2023-01-29T13:21:29.736Z,320.00
2023-01-29T13:22:29.713Z,321.00
2023-01-29T13:23:29.713Z,327.00
2023-01-29T13:24:29.692Z,327.00
2023-01-29T13:25:29.691Z,327.00
2023-01-29T13:26:29.721Z,341.00
2023-01-29T13:27:29.661Z,337.00
2023-01-29T13:28:29.652Z,323.00
2023-01-29T13:29:29.647Z,329.00
2023-01-29T13:30:29.646Z,343.00
2023-01-29T13:31:29.738Z,326.00
2023-01-29T13:32:29.606Z,308.00
2023-01-29T13:33:29.594Z,316.00
2023-01-29T13:34:29.580Z,266.00
2023-01-29T13:35:29.577Z,252.00
2023-01-29T13:36:29.560Z,299.00
2023-01-29T13:37:29.565Z,288.00
2023-01-29T13:38:29.539Z,237.00
2023-01-29T13:39:29.563Z,225.00
2023-01-29T13:40:29.509Z,204.00
2023-01-29T13:41:29.551Z,184.00
2023-01-29T13:42:29.500Z,188.00
2023-01-29T13:43:29.516Z,191.00
2023-01-29T13:44:29.488Z,183.00
2023-01-29T13:45:29.482Z,168.00
2023-01-29T13:46:29.458Z,153.00
2023-01-29T13:47:29.460Z,143.00
2023-01-29T13:48:29.437Z,148.00
2023-01-29T13:49:29.442Z,160.00
2023-01-29T13:50:29.443Z,177.00
2023-01-29T13:51:29.413Z,172.00
2023-01-29T13:52:29.395Z,144.00
2023-01-29T13:53:29.397Z,139.00
2023-01-29T13:54:29.391Z,128.00
2023-01-29T13:55:29.387Z,159.00
2023-01-29T13:56:29.381Z,139.00
2023-01-29T13:57:29.348Z,144.00
2023-01-29T13:58:29.323Z,182.00
2023-01-29T13:59:29.330Z,175.00
2023-01-29T14:00:29.363Z,147.00
2023-01-29T14:01:29.404Z,138.00
2023-01-29T14:02:29.350Z,141.00
2023-01-29T14:03:39.932Z,127.00
2023-01-29T14:04:29.265Z,119.00
2023-01-29T14:05:29.302Z,114.00
2023-01-29T14:06:29.287Z,109.00
2023-01-29T14:07:29.228Z,116.00
2023-01-29T14:08:29.242Z,107.00
2023-01-29T14:09:29.229Z,107.00
2023-01-29T14:10:29.244Z,101.00
2023-01-29T14:11:29.207Z,107.00
2023-01-29T14:12:29.193Z,101.00
2023-01-29T14:13:29.167Z,112.00
2023-01-29T14:14:29.165Z,102.00
2023-01-29T14:15:29.173Z,103.00
2023-01-29T14:16:29.185Z,102.00
2023-01-29T14:17:29.131Z,119.00
2023-01-29T14:18:29.133Z,127.00
2023-01-29T14:19:29.111Z,119.00
2023-01-29T14:20:38.244Z,151.00
2023-01-29T14:21:29.094Z,148.00
2023-01-29T14:22:29.083Z,153.00
2023-01-29T14:23:29.071Z,164.00
2023-01-29T14:24:29.047Z,152.00
2023-01-29T14:25:29.050Z,123.00
2023-01-29T14:26:29.067Z,152.00
2023-01-29T14:27:29.043Z,192.00
2023-01-29T14:28:29.020Z,158.00
2023-01-29T14:29:34.609Z,144.00
2023-01-29T14:30:29.017Z,114.00
2023-01-29T14:31:29.037Z,96.00
2023-01-29T14:32:28.976Z,103.00
2023-01-29T14:33:28.959Z,126.00
2023-01-29T14:34:28.951Z,116.00
2023-01-29T14:35:28.941Z,116.00
2023-01-29T14:36:28.952Z,100.00
2023-01-29T14:37:28.946Z,95.00
2023-01-29T14:38:28.920Z,85.00
2023-01-29T14:39:28.907Z,80.00
2023-01-29T14:40:28.908Z,69.00
2023-01-29T14:41:28.881Z,68.00
2023-01-29T14:42:28.852Z,79.00
2023-01-29T14:43:28.865Z,90.00
2023-01-29T14:44:28.851Z,81.00
2023-01-29T14:45:28.847Z,98.00
2023-01-29T14:46:28.880Z,103.00
2023-01-29T14:47:28.816Z,68.00
2023-01-29T14:48:28.802Z,114.00
2023-01-29T14:49:28.797Z,120.00
2023-01-29T14:50:28.805Z,126.00
2023-01-29T14:51:28.785Z,130.00
2023-01-29T14:52:28.759Z,129.00
2023-01-29T14:53:28.751Z,109.00
2023-01-29T14:54:28.743Z,93.00
2023-01-29T14:55:28.727Z,97.00
2023-01-29T14:56:28.746Z,83.00
2023-01-29T14:57:28.701Z,79.00
2023-01-29T14:58:28.740Z,80.00
2023-01-29T14:59:28.692Z,85.00
2023-01-29T15:00:28.679Z,79.00
2023-01-29T15:01:28.725Z,87.00
2023-01-29T15:02:28.670Z,93.00
2023-01-29T15:03:28.652Z,97.00
2023-01-29T15:04:28.648Z,87.00
2023-01-29T15:05:28.638Z,74.00
2023-01-29T15:06:28.602Z,63.00
2023-01-29T15:07:28.608Z,69.00
2023-01-29T15:08:28.585Z,69.00
2023-01-29T15:09:35.875Z,78.00
2023-01-29T15:10:28.575Z,71.00
2023-01-29T15:11:28.573Z,60.00
2023-01-29T15:12:28.574Z,59.00
2023-01-29T15:13:28.548Z,53.00
2023-01-29T15:14:28.562Z,58.00
2023-01-29T15:15:28.555Z,56.00
2023-01-29T15:16:28.535Z,43.00
2023-01-29T15:17:28.509Z,37.00
2023-01-29T15:18:28.482Z,37.00
2023-01-29T15:19:28.484Z,35.00
2023-01-29T15:20:28.468Z,23.00
2023-01-29T15:21:28.470Z,29.00
2023-01-29T15:22:28.495Z,31.00
2023-01-29T15:23:28.449Z,22.00
2023-01-29T15:24:28.431Z,23.00
2023-01-29T15:25:28.428Z,28.00
2023-01-29T15:26:28.425Z,24.00
2023-01-29T15:27:28.422Z,21.00
2023-01-29T15:28:28.388Z,20.00
2023-01-29T15:29:28.422Z,13.00
2023-01-29T15:30:28.370Z,9.00
2023-01-29T15:31:28.478Z,14.00
2023-01-29T15:32:28.360Z,23.00
2023-01-29T15:33:28.359Z,17.00
2023-01-29T15:34:28.329Z,8.00
2023-01-29T15:35:28.366Z,10.00
2023-01-29T15:36:28.352Z,11.00
2023-01-29T15:37:28.311Z,17.00
2023-01-29T15:38:28.285Z,9.00
2023-01-29T15:39:28.288Z,4.00
2023-01-29T15:40:28.280Z,8.00
2023-01-29T15:41:28.256Z,9.00
2023-01-29T15:42:28.249Z,12.00
2023-01-29T15:43:28.232Z,4.00
2023-01-29T15:44:28.248Z,7.00
2023-01-29T15:45:28.211Z,8.00
2023-01-29T15:46:28.201Z,5.00
2023-01-29T15:47:28.269Z,5.00
2023-01-29T15:48:28.190Z,7.00
2023-01-29T15:49:28.191Z,7.00
2023-01-29T15:50:29.055Z,5.00
2023-01-29T15:51:28.151Z,5.00
2023-01-29T15:52:28.168Z,3.00
2023-01-29T15:53:28.142Z,2.00
2023-01-29T15:54:28.117Z,1.00
2023-01-29T15:55:28.125Z,1.00
2023-01-29T15:56:28.098Z,4.00
2023-01-29T15:57:28.104Z,6.00
2023-01-29T15:58:28.107Z,7.00
2023-01-29T15:59:28.105Z,3.00
2023-01-29T16:00:28.068Z,2.00
2023-01-29T16:01:28.111Z,0.00
2023-01-29T16:02:28.050Z,1.00
2023-01-29T16:03:28.048Z,2.00
2023-01-29T16:04:28.035Z,2.00
2023-01-29T16:05:28.021Z,2.00
2023-01-29T16:06:28.047Z,0.00
2023-01-29T16:07:27.981Z,1.00
2023-01-29T16:08:27.983Z,1.00
2023-01-29T16:09:27.970Z,1.00
2023-01-29T16:10:28.032Z,0.00
2023-01-29T16:11:28.043Z,0.00
2023-01-29T16:12:28.009Z,0.00
2023-01-29T16:13:27.994Z,0.00
2023-01-29T16:14:27.997Z,0.00
2023-01-29T16:15:27.976Z,0.00
2023-01-29T16:16:28.190Z,0.00
2023-01-29T16:17:27.948Z,0.00
2023-01-29T16:18:27.944Z,0.00
2023-01-29T16:19:27.905Z,0.00
2023-01-29T16:20:27.926Z,0.00
2023-01-29T16:21:27.909Z,0.00
2023-01-29T16:22:27.923Z,0.00
2023-01-29T16:23:27.945Z,0.00
2023-01-29T16:24:27.868Z,0.00
2023-01-29T16:25:27.843Z,0.00
2023-01-29T16:26:27.897Z,0.00
2023-01-29T16:27:27.828Z,0.00
2023-01-29T16:28:27.850Z,0.00
2023-01-29T16:29:27.818Z,0.00
2023-01-29T16:30:27.941Z,0.00
2023-01-29T16:31:27.900Z,0.00
2023-01-29T16:32:27.813Z,0.00
2023-01-29T16:33:27.773Z,0.00
2023-01-29T16:34:27.747Z,0.00
2023-01-29T16:35:27.756Z,0.00
2023-01-29T16:36:27.740Z,0.00
2023-01-29T16:37:27.732Z,0.00
2023-01-29T16:38:27.734Z,0.00
2023-01-29T16:39:27.694Z,0.00
2023-01-29T16:40:27.715Z,0.00
2023-01-29T16:41:27.684Z,0.00
2023-01-29T16:42:27.703Z,0.00
2023-01-29T16:43:31.318Z,0.00
2023-01-29T16:44:27.682Z,0.00
2023-01-29T16:45:27.674Z,0.00
2023-01-29T16:46:27.687Z,0.00
2023-01-29T16:47:27.659Z,0.00
2023-01-29T16:48:27.635Z,0.00
2023-01-29T16:49:27.614Z,0.00
2023-01-29T16:50:27.625Z,0.00
2023-01-29T16:51:27.619Z,0.00
2023-01-29T16:52:27.573Z,0.00
2023-01-29T16:53:27.568Z,0.00
2023-01-29T16:54:27.579Z,0.00
2023-01-29T16:55:27.528Z,0.00
2023-01-29T16:56:27.550Z,0.00
2023-01-29T16:57:27.524Z,0.00
2023-01-29T16:58:27.504Z,0.00
2023-01-29T16:59:27.533Z,0.00
2023-01-29T17:00:27.636Z,0.00
2023-01-29T17:01:27.498Z,0.00
2023-01-29T17:02:27.531Z,0.00
2023-01-29T17:03:27.460Z,0.00
2023-01-29T17:04:27.470Z,0.00
2023-01-29T17:05:27.444Z,0.00
2023-01-29T17:06:27.437Z,0.00
2023-01-29T17:07:27.444Z,0.00
2023-01-29T17:08:27.427Z,0.00
2023-01-29T17:09:27.394Z,0.00
2023-01-29T17:10:28.094Z,0.00
2023-01-29T17:11:27.409Z,0.00
2023-01-29T17:12:27.370Z,0.00
2023-01-29T17:13:27.350Z,0.00
2023-01-29T17:14:27.375Z,0.00
2023-01-29T17:15:27.333Z,0.00
2023-01-29T17:16:27.469Z,0.00
2023-01-29T17:17:27.349Z,0.00
2023-01-29T17:18:27.304Z,0.00
2023-01-29T17:19:27.334Z,0.00
2023-01-29T17:20:27.875Z,0.00
2023-01-29T17:21:27.262Z,0.00
2023-01-29T17:22:27.272Z,0.00
2023-01-29T17:23:27.244Z,0.00
2023-01-29T17:24:27.270Z,0.00
2023-01-29T17:25:27.233Z,0.00
2023-01-29T17:26:27.267Z,0.00
2023-01-29T17:27:27.212Z,0.00
2023-01-29T17:28:27.209Z,0.00
2023-01-29T17:29:27.213Z,0.00
2023-01-29T17:30:27.201Z,0.00
2023-01-29T17:31:27.306Z,0.00
2023-01-29T17:32:27.198Z,0.00
2023-01-29T17:33:27.154Z,0.00
2023-01-29T17:34:27.130Z,0.00
2023-01-29T17:35:27.138Z,0.00
2023-01-29T17:36:27.136Z,0.00
2023-01-29T17:37:27.115Z,0.00
2023-01-29T17:38:27.138Z,0.00
2023-01-29T17:39:27.076Z,0.00
2023-01-29T17:40:27.103Z,0.00
2023-01-29T17:41:27.085Z,0.00
2023-01-29T17:42:27.049Z,0.00
2023-01-29T17:43:27.084Z,0.00
2023-01-29T17:44:27.058Z,0.00
2023-01-29T17:45:27.056Z,0.00
2023-01-29T17:46:27.009Z,0.00
2023-01-29T17:47:27.368Z,0.00
2023-01-29T17:48:26.993Z,0.00
2023-01-29T17:49:26.980Z,0.00